createdAt,value
2017-09-25T00:00:12.397Z,1019.23
2017-09-25T00:01:12.352Z,1019.25
2017-09-25T00:02:12.320Z,1019.22
2017-09-25T00:03:12.289Z,1019.22
2017-09-25T00:04:12.254Z,1019.20
2017-09-25T00:05:12.223Z,1019.22
2017-09-25T00:06:12.188Z,1019.22
2017-09-25T00:07:12.152Z,1019.19
2017-09-25T00:08:12.122Z,1019.17
2017-09-25T00:09:12.088Z,1019.21
2017-09-25T00:10:12.053Z,1019.22
2017-09-25T00:11:12.020Z,1019.22
2017-09-25T00:12:11.985Z,1019.21
2017-09-25T00:13:11.954Z,1019.23
2017-09-25T00:14:11.918Z,1019.19
2017-09-25T00:15:11.886Z,1019.21
2017-09-25T00:16:11.855Z,1019.22
2017-09-25T00:17:11.816Z,1019.21
2017-09-25T00:18:11.784Z,1019.22
2017-09-25T00:19:11.757Z,1019.22
2017-09-25T00:20:11.718Z,1019.16
2017-09-25T00:21:11.725Z,1019.12
2017-09-25T00:22:11.653Z,1019.16
2017-09-25T00:23:11.625Z,1019.20
2017-09-25T00:24:11.591Z,1019.19
2017-09-25T00:25:11.552Z,1019.16
2017-09-25T00:26:11.528Z,1019.19
2017-09-25T00:27:11.494Z,1019.17
2017-09-25T00:28:11.448Z,1019.12
2017-09-25T00:29:11.416Z,1019.14
2017-09-25T00:30:11.393Z,1019.13
2017-09-25T00:31:11.348Z,1019.13
2017-09-25T00:32:11.314Z,1019.14
2017-09-25T00:33:11.280Z,1019.14
2017-09-25T00:34:11.246Z,1019.11
2017-09-25T00:35:11.211Z,1019.12
2017-09-25T00:36:11.181Z,1019.05
2017-09-25T00:37:11.144Z,1019.08
2017-09-25T00:38:11.122Z,1019.06
2017-09-25T00:39:11.084Z,1019.03
2017-09-25T00:40:11.043Z,1019.02
2017-09-25T00:41:11.008Z,1019.05
2017-09-25T00:42:10.987Z,1019.03
2017-09-25T00:43:10.943Z,1019.03
2017-09-25T00:44:10.910Z,1019.06
2017-09-25T00:45:10.885Z,1019.03
2017-09-25T00:46:10.874Z,1019.03
2017-09-25T00:47:10.814Z,1019.05
2017-09-25T00:48:10.778Z,1019.03
2017-09-25T00:49:10.740Z,1019.00
2017-09-25T00:50:10.715Z,1019.00
2017-09-25T00:51:10.672Z,1019.03
2017-09-25T00:52:10.648Z,1019.01
2017-09-25T00:53:10.606Z,1018.99
2017-09-25T00:54:10.573Z,1019.03
2017-09-25T00:55:10.540Z,1019.04
2017-09-25T00:56:10.546Z,1019.00
2017-09-25T00:57:10.492Z,1019.02
2017-09-25T00:58:10.438Z,1019.02
2017-09-25T00:59:10.438Z,1019.04
2017-09-25T01:00:10.374Z,1019.06
2017-09-25T01:01:10.346Z,1019.06
2017-09-25T01:02:10.312Z,1019.07
2017-09-25T01:03:10.265Z,1019.05
2017-09-25T01:04:10.237Z,1019.04
2017-09-25T01:05:10.201Z,1019.01
2017-09-25T01:06:10.167Z,1019.03
2017-09-25T01:07:10.135Z,1019.04
2017-09-25T01:08:10.095Z,1019.05
2017-09-25T01:09:10.068Z,1019.07
2017-09-25T01:10:10.025Z,1019.06
2017-09-25T01:11:09.999Z,1019.10
2017-09-25T01:12:09.966Z,1019.07
2017-09-25T01:13:09.928Z,1019.07
2017-09-25T01:14:09.890Z,1019.12
2017-09-25T01:15:09.855Z,1019.09
2017-09-25T01:16:09.828Z,1019.05
2017-09-25T01:17:09.791Z,1019.11
2017-09-25T01:18:09.773Z,1019.03
2017-09-25T01:19:09.719Z,1019.04
2017-09-25T01:20:09.692Z,1018.99
2017-09-25T01:21:09.656Z,1019.04
2017-09-25T01:22:09.615Z,1019.06
2017-09-25T01:23:09.582Z,1019.04
2017-09-25T01:24:09.549Z,1019.02
2017-09-25T01:25:09.512Z,1019.03
2017-09-25T01:26:09.477Z,1019.00
2017-09-25T01:27:09.441Z,1018.99
2017-09-25T01:28:09.417Z,1018.97
2017-09-25T01:29:09.372Z,1018.93
2017-09-25T01:30:09.337Z,1018.94
2017-09-25T01:31:09.302Z,1018.93
2017-09-25T01:32:09.270Z,1018.93
2017-09-25T01:33:09.236Z,1018.93
2017-09-25T01:34:09.208Z,1018.91
2017-09-25T01:35:09.163Z,1018.91
2017-09-25T01:36:09.135Z,1018.97
2017-09-25T01:37:09.096Z,1018.98
2017-09-25T01:38:09.062Z,1018.97
2017-09-25T01:39:09.033Z,1019.01
2017-09-25T01:40:08.992Z,1018.99
2017-09-25T01:41:08.971Z,1018.99
2017-09-25T01:42:08.947Z,1019.03
2017-09-25T01:43:08.888Z,1019.06
2017-09-25T01:44:08.863Z,1019.04
2017-09-25T01:45:08.822Z,1018.96
2017-09-25T01:46:08.786Z,1019.02
2017-09-25T01:47:08.749Z,1019.00
2017-09-25T01:48:08.715Z,1019.04
2017-09-25T01:49:08.680Z,1019.04
2017-09-25T01:50:08.649Z,1018.97
2017-09-25T01:51:08.613Z,1018.96
2017-09-25T01:52:08.577Z,1018.97
2017-09-25T01:53:08.543Z,1018.96
2017-09-25T01:54:08.508Z,1018.96
2017-09-25T01:55:08.474Z,1018.98
2017-09-25T01:56:08.440Z,1018.99
2017-09-25T01:57:08.404Z,1018.97
2017-09-25T01:58:08.399Z,1018.92
2017-09-25T01:59:08.335Z,1018.90
2017-09-25T02:00:08.305Z,1018.85
2017-09-25T02:01:08.268Z,1018.86
2017-09-25T02:02:08.235Z,1018.85
2017-09-25T02:03:08.197Z,1018.87
2017-09-25T02:04:08.162Z,1018.85
2017-09-25T02:05:08.132Z,1018.78
2017-09-25T02:06:08.099Z,1018.75
2017-09-25T02:07:08.066Z,1018.78
2017-09-25T02:08:08.032Z,1018.75
2017-09-25T02:09:07.990Z,1018.76
2017-09-25T02:10:07.958Z,1018.76
2017-09-25T02:11:07.921Z,1018.73
2017-09-25T02:12:07.887Z,1018.70
2017-09-25T02:13:07.853Z,1018.69
2017-09-25T02:14:07.832Z,1018.68
2017-09-25T02:15:07.783Z,1018.66
2017-09-25T02:16:07.749Z,1018.67
2017-09-25T02:17:07.715Z,1018.67
2017-09-25T02:18:07.684Z,1018.68
2017-09-25T02:19:07.646Z,1018.69
2017-09-25T02:20:07.611Z,1018.65
2017-09-25T02:21:07.582Z,1018.69
2017-09-25T02:22:07.541Z,1018.69
2017-09-25T02:23:07.511Z,1018.67
2017-09-25T02:24:07.473Z,1018.67
2017-09-25T02:25:07.436Z,1018.64
2017-09-25T02:26:07.406Z,1018.63
2017-09-25T02:27:07.368Z,1018.62
2017-09-25T02:28:07.341Z,1018.58
2017-09-25T02:29:07.300Z,1018.60
2017-09-25T02:30:07.264Z,1018.64
2017-09-25T02:31:07.264Z,1018.63
2017-09-25T02:32:07.201Z,1018.65
2017-09-25T02:33:07.161Z,1018.66
2017-09-25T02:34:07.127Z,1018.71
2017-09-25T02:35:07.092Z,1018.71
2017-09-25T02:36:07.059Z,1018.67
2017-09-25T02:37:07.023Z,1018.70
2017-09-25T02:38:06.989Z,1018.69
2017-09-25T02:39:06.955Z,1018.69
2017-09-25T02:40:06.919Z,1018.67
2017-09-25T02:41:06.886Z,1018.66
2017-09-25T02:42:06.851Z,1018.63
2017-09-25T02:43:06.822Z,1018.61
2017-09-25T02:44:06.784Z,1018.65
2017-09-25T02:45:06.752Z,1018.70
2017-09-25T02:46:06.712Z,1018.68
2017-09-25T02:47:06.687Z,1018.72
2017-09-25T02:48:06.653Z,1018.67
2017-09-25T02:49:06.609Z,1018.64
2017-09-25T02:50:06.576Z,1018.64
2017-09-25T02:51:06.539Z,1018.62
2017-09-25T02:52:06.513Z,1018.60
2017-09-25T02:53:06.485Z,1018.57
2017-09-25T02:54:06.436Z,1018.59
2017-09-25T02:55:06.415Z,1018.58
2017-09-25T02:56:06.367Z,1018.56
2017-09-25T02:57:06.333Z,1018.55
2017-09-25T02:58:06.309Z,1018.50
2017-09-25T02:59:06.264Z,1018.44
2017-09-25T03:00:06.228Z,1018.46
2017-09-25T03:01:06.199Z,1018.42
2017-09-25T03:02:06.159Z,1018.44
2017-09-25T03:03:06.131Z,1018.46
2017-09-25T03:04:06.091Z,1018.47
2017-09-25T03:05:06.073Z,1018.44
2017-09-25T03:06:06.022Z,1018.43
2017-09-25T03:07:05.988Z,1018.42
2017-09-25T03:08:05.969Z,1018.36
2017-09-25T03:09:05.919Z,1018.40
2017-09-25T03:10:05.890Z,1018.36
2017-09-25T03:11:05.852Z,1018.32
2017-09-25T03:12:05.813Z,1018.30
2017-09-25T03:13:05.797Z,1018.28
2017-09-25T03:14:05.746Z,1018.25
2017-09-25T03:15:05.714Z,1018.21
2017-09-25T03:16:05.684Z,1018.27
2017-09-25T03:17:05.669Z,1018.26
2017-09-25T03:18:05.615Z,1018.23
2017-09-25T03:19:05.618Z,1018.19
2017-09-25T03:20:05.544Z,1018.22
2017-09-25T03:21:05.514Z,1018.19
2017-09-25T03:22:05.491Z,1018.22
2017-09-25T03:23:05.436Z,1018.20
2017-09-25T03:24:05.417Z,1018.18
2017-09-25T03:25:05.376Z,1018.18
2017-09-25T03:26:05.331Z,1018.18
2017-09-25T03:27:05.318Z,1018.14
2017-09-25T03:28:05.274Z,1018.13
2017-09-25T03:29:05.245Z,1018.16
2017-09-25T03:30:05.202Z,1018.15
2017-09-25T03:31:05.158Z,1018.15
2017-09-25T03:32:05.142Z,1018.17
2017-09-25T03:33:05.100Z,1018.18
2017-09-25T03:34:05.093Z,1018.19
2017-09-25T03:35:05.039Z,1018.19
2017-09-25T03:36:04.991Z,1018.18
2017-09-25T03:37:05.053Z,1018.17
2017-09-25T03:38:04.921Z,1018.16
2017-09-25T03:39:04.909Z,1018.09
2017-09-25T03:40:04.851Z,1018.15
2017-09-25T03:41:04.829Z,1018.10
2017-09-25T03:42:04.787Z,1018.10
2017-09-25T03:43:04.757Z,1018.11
2017-09-25T03:44:04.726Z,1018.10
2017-09-25T03:45:04.684Z,1018.11
2017-09-25T03:46:04.719Z,1018.13
2017-09-25T03:47:04.615Z,1018.20
2017-09-25T03:48:04.582Z,1018.24
2017-09-25T03:49:04.549Z,1018.21
2017-09-25T03:50:04.513Z,1018.18
2017-09-25T03:51:04.472Z,1018.19
2017-09-25T03:52:04.455Z,1018.21
2017-09-25T03:53:04.406Z,1018.22
2017-09-25T03:54:04.372Z,1018.26
2017-09-25T03:55:04.341Z,1018.24
2017-09-25T03:56:04.370Z,1018.20
2017-09-25T03:57:04.278Z,1018.19
2017-09-25T03:58:04.236Z,1018.19
2017-09-25T03:59:04.201Z,1018.17
2017-09-25T04:00:04.165Z,1018.15
2017-09-25T04:01:04.126Z,1018.20
2017-09-25T04:02:04.101Z,1018.12
2017-09-25T04:03:04.056Z,1018.17
2017-09-25T04:04:04.024Z,1018.11
2017-09-25T04:05:03.991Z,1018.13
2017-09-25T04:06:03.953Z,1018.10
2017-09-25T04:07:03.922Z,1018.10
2017-09-25T04:08:03.884Z,1018.14
2017-09-25T04:09:03.846Z,1018.12
2017-09-25T04:10:03.823Z,1018.13
2017-09-25T04:11:03.781Z,1018.11
2017-09-25T04:12:03.747Z,1018.07
2017-09-25T04:13:03.712Z,1018.07
2017-09-25T04:14:03.684Z,1018.06
2017-09-25T04:15:03.643Z,1018.07
2017-09-25T04:16:03.612Z,1018.01
2017-09-25T04:17:03.589Z,1018.05
2017-09-25T04:18:03.540Z,1018.00
2017-09-25T04:19:03.508Z,1017.96
2017-09-25T04:20:03.471Z,1017.97
2017-09-25T04:21:03.438Z,1017.98
2017-09-25T04:22:03.400Z,1017.98
2017-09-25T04:23:03.365Z,1017.98
2017-09-25T04:24:03.351Z,1018.00
2017-09-25T04:25:03.300Z,1017.95
2017-09-25T04:26:03.272Z,1017.93
2017-09-25T04:27:03.227Z,1017.95
2017-09-25T04:28:03.198Z,1017.94
2017-09-25T04:29:03.160Z,1017.94
2017-09-25T04:30:03.124Z,1017.91
2017-09-25T04:31:03.098Z,1017.88
2017-09-25T04:32:03.070Z,1017.92
2017-09-25T04:34:34.574Z,1018.07
2017-09-25T04:35:34.532Z,1018.11
2017-09-25T04:37:27.378Z,1018.10
2017-09-25T04:38:27.326Z,1018.19
2017-09-25T04:40:20.157Z,1018.18
2017-09-25T04:41:20.117Z,1018.16
2017-09-25T04:43:12.935Z,1018.14
2017-09-25T04:44:12.892Z,1018.12
2017-09-25T04:46:05.742Z,1018.13
2017-09-25T04:47:05.682Z,1018.06
2017-09-25T04:48:58.542Z,1018.06
2017-09-25T04:49:58.507Z,1018.13
2017-09-25T04:51:51.477Z,1018.14
2017-09-25T04:52:51.291Z,1018.19
2017-09-25T04:54:44.122Z,1018.23
2017-09-25T04:55:44.098Z,1018.22
2017-09-25T04:57:36.897Z,1018.24
2017-09-25T04:58:36.849Z,1018.25
2017-09-25T05:00:29.697Z,1018.24
2017-09-25T05:01:29.647Z,1018.25
2017-09-25T05:03:22.478Z,1018.27
2017-09-25T05:04:22.452Z,1018.24
2017-09-25T05:06:15.332Z,1018.23
2017-09-25T05:07:15.243Z,1018.18
2017-09-25T05:09:08.052Z,1018.20
2017-09-25T05:10:08.006Z,1018.24
2017-09-25T05:12:00.860Z,1018.22
2017-09-25T05:13:00.805Z,1018.26
2017-09-25T05:14:53.656Z,1018.19
2017-09-25T05:15:53.591Z,1018.16
2017-09-25T05:17:46.431Z,1018.18
2017-09-25T05:18:46.377Z,1018.18
2017-09-25T05:20:39.212Z,1018.19
2017-09-25T05:21:39.164Z,1018.18
2017-09-25T05:23:32.076Z,1018.17
2017-09-25T05:24:32.041Z,1018.19
2017-09-25T05:26:24.882Z,1018.14
2017-09-25T05:27:24.826Z,1018.14
2017-09-25T05:29:17.648Z,1018.10
2017-09-25T05:30:17.611Z,1018.11
2017-09-25T05:32:10.743Z,1018.15
2017-09-25T05:33:10.404Z,1018.15
2017-09-25T05:35:03.297Z,1018.17
2017-09-25T05:36:03.252Z,1018.19
2017-09-25T05:37:56.103Z,1018.14
2017-09-25T05:38:56.082Z,1018.16
2017-09-25T05:40:48.894Z,1018.14
2017-09-25T05:41:48.842Z,1018.15
2017-09-25T05:43:41.702Z,1018.19
2017-09-25T05:44:41.664Z,1018.18
2017-09-25T05:46:34.487Z,1018.20
2017-09-25T05:47:34.446Z,1018.16
2017-09-25T05:49:27.622Z,1018.15
2017-09-25T05:50:27.339Z,1018.22
2017-09-25T05:52:20.056Z,1018.15
2017-09-25T05:53:20.016Z,1018.18
2017-09-25T05:55:12.863Z,1018.18
2017-09-25T05:56:12.812Z,1018.13
2017-09-25T05:58:05.675Z,1018.13
2017-09-25T05:59:05.631Z,1018.15
2017-09-25T06:00:58.596Z,1018.15
2017-09-25T06:01:58.450Z,1018.13
2017-09-25T06:03:51.265Z,1018.19
2017-09-25T06:04:51.216Z,1018.15
2017-09-25T06:08:15.593Z,1018.20
2017-09-25T06:09:15.548Z,1018.23
2017-09-25T06:11:08.385Z,1018.29
2017-09-25T06:12:08.348Z,1018.34
2017-09-25T06:14:01.193Z,1018.30
2017-09-25T06:15:01.157Z,1018.35
2017-09-25T06:16:53.948Z,1018.37
2017-09-25T06:17:53.912Z,1018.38
2017-09-25T06:19:46.763Z,1018.45
2017-09-25T06:20:46.720Z,1018.42
2017-09-25T06:22:39.537Z,1018.42
2017-09-25T06:23:39.497Z,1018.41
2017-09-25T06:25:32.340Z,1018.46
2017-09-25T06:26:32.288Z,1018.50
2017-09-25T06:28:25.123Z,1018.53
2017-09-25T06:29:25.078Z,1018.49
2017-09-25T06:31:17.892Z,1018.39
2017-09-25T06:32:17.856Z,1018.50
2017-09-25T06:34:10.706Z,1018.35
2017-09-25T06:35:10.662Z,1018.36
2017-09-25T06:37:03.591Z,1018.30
2017-09-25T06:38:03.446Z,1018.31
2017-09-25T06:39:56.546Z,1018.29
2017-09-25T06:40:56.225Z,1018.33
2017-09-25T06:42:49.042Z,1018.29
2017-09-25T06:43:49.010Z,1018.35
2017-09-25T06:45:41.840Z,1018.24
2017-09-25T06:46:41.799Z,1018.27
2017-09-25T06:48:34.626Z,1018.24
2017-09-25T06:49:34.588Z,1018.23
2017-09-25T06:51:27.418Z,1018.30
2017-09-25T06:52:27.366Z,1018.25
2017-09-25T06:54:20.198Z,1018.31
2017-09-25T06:55:20.162Z,1018.35
2017-09-25T06:57:13.035Z,1018.38
2017-09-25T06:58:12.959Z,1018.42
2017-09-25T07:00:05.812Z,1018.38
2017-09-25T07:01:05.737Z,1018.33
2017-09-25T07:02:58.570Z,1018.35
2017-09-25T07:03:58.527Z,1018.34
2017-09-25T07:05:51.400Z,1018.37
2017-09-25T07:06:51.357Z,1018.39
2017-09-25T07:08:44.185Z,1018.42
2017-09-25T07:11:15.958Z,1018.44
2017-09-25T07:12:15.642Z,1018.43
2017-09-25T07:14:08.491Z,1018.46
2017-09-25T07:15:08.441Z,1018.51
2017-09-25T07:17:01.536Z,1018.46
2017-09-25T07:18:01.225Z,1018.50
2017-09-25T07:19:54.073Z,1018.48
2017-09-25T07:20:54.044Z,1018.49
2017-09-25T07:22:47.147Z,1018.48
2017-09-25T07:23:46.814Z,1018.42
2017-09-25T07:25:39.659Z,1018.49
2017-09-25T07:26:39.604Z,1018.43
2017-09-25T07:28:32.447Z,1018.46
2017-09-25T07:29:32.422Z,1018.47
2017-09-25T07:31:25.827Z,1018.47
2017-09-25T07:32:25.368Z,1018.48
2017-09-25T07:34:18.620Z,1018.51
2017-09-25T07:35:18.158Z,1018.47
2017-09-25T07:37:10.989Z,1018.51
2017-09-25T07:38:10.957Z,1018.55
2017-09-25T07:40:03.785Z,1018.51
2017-09-25T07:41:03.743Z,1018.54
2017-09-25T07:42:56.567Z,1018.53
2017-09-25T07:43:56.540Z,1018.54
2017-09-25T07:45:49.364Z,1018.60
2017-09-25T07:46:49.323Z,1018.49
2017-09-25T07:48:42.141Z,1018.53
2017-09-25T07:49:42.114Z,1018.51
2017-09-25T07:51:34.944Z,1018.52
2017-09-25T07:52:34.899Z,1018.54
2017-09-25T07:54:28.322Z,1018.57
2017-09-25T07:55:27.885Z,1018.58
2017-09-25T07:57:20.718Z,1018.60
2017-09-25T07:58:20.676Z,1018.60
2017-09-25T08:00:13.775Z,1018.58
2017-09-25T08:01:13.463Z,1018.58
2017-09-25T08:03:06.279Z,1018.62
2017-09-25T08:04:06.239Z,1018.60
2017-09-25T08:05:59.361Z,1018.62
2017-09-25T08:06:59.058Z,1018.68
2017-09-25T08:08:51.919Z,1018.65
2017-09-25T08:09:51.870Z,1018.62
2017-09-25T08:11:44.946Z,1018.63
2017-09-25T08:12:44.628Z,1018.66
2017-09-25T08:14:37.454Z,1018.65
2017-09-25T08:15:37.426Z,1018.65
2017-09-25T08:17:30.281Z,1018.68
2017-09-25T08:18:30.230Z,1018.68
2017-09-25T08:20:23.066Z,1018.70
2017-09-25T08:21:23.034Z,1018.71
2017-09-25T08:23:16.114Z,1018.67
2017-09-25T08:24:15.799Z,1018.68
2017-09-25T08:26:08.642Z,1018.73
2017-09-25T08:27:08.597Z,1018.73
2017-09-25T08:28:08.569Z,1018.72
2017-09-25T08:29:08.529Z,1018.73
2017-09-25T08:30:08.496Z,1018.71
2017-09-25T08:31:08.459Z,1018.74
2017-09-25T08:32:08.434Z,1018.74
2017-09-25T08:33:08.469Z,1018.77
2017-09-25T08:34:08.386Z,1018.75
2017-09-25T08:35:08.332Z,1018.69
2017-09-25T08:36:08.291Z,1018.71
2017-09-25T08:37:08.253Z,1018.73
2017-09-25T08:38:08.230Z,1018.71
2017-09-25T08:39:08.188Z,1018.68
2017-09-25T08:40:08.161Z,1018.72
2017-09-25T08:41:08.121Z,1018.70
2017-09-25T08:42:08.090Z,1018.67
2017-09-25T08:43:08.058Z,1018.67
2017-09-25T08:44:08.019Z,1018.66
2017-09-25T08:45:07.993Z,1018.64
2017-09-25T08:46:07.953Z,1018.68
2017-09-25T08:47:07.918Z,1018.67
2017-09-25T08:48:07.887Z,1018.70
2017-09-25T08:49:07.846Z,1018.71
2017-09-25T08:50:07.823Z,1018.72
2017-09-25T08:51:07.787Z,1018.72
2017-09-25T08:52:07.743Z,1018.67
2017-09-25T08:53:07.723Z,1018.70
2017-09-25T08:54:07.677Z,1018.71
2017-09-25T08:55:07.643Z,1018.66
2017-09-25T08:56:07.628Z,1018.71
2017-09-25T08:57:07.574Z,1018.73
2017-09-25T08:58:07.538Z,1018.73
2017-09-25T08:59:07.507Z,1018.74
2017-09-25T09:00:07.499Z,1018.80
2017-09-25T09:01:07.437Z,1018.72
2017-09-25T09:02:07.401Z,1018.80
2017-09-25T09:03:07.367Z,1018.78
2017-09-25T09:04:07.331Z,1018.80
2017-09-25T09:05:07.297Z,1018.80
2017-09-25T09:06:07.268Z,1018.81
2017-09-25T09:07:07.229Z,1018.82
2017-09-25T09:08:07.196Z,1018.80
2017-09-25T09:09:07.162Z,1018.80
2017-09-25T09:10:07.127Z,1018.80
2017-09-25T09:11:07.093Z,1018.77
2017-09-25T09:12:07.058Z,1018.78
2017-09-25T09:13:07.022Z,1018.77
2017-09-25T09:14:06.991Z,1018.75
2017-09-25T09:15:06.956Z,1018.75
2017-09-25T09:16:06.923Z,1018.76
2017-09-25T09:17:06.909Z,1018.77
2017-09-25T09:18:06.871Z,1018.77
2017-09-25T09:19:06.819Z,1018.78
2017-09-25T09:20:06.782Z,1018.74
2017-09-25T09:21:06.751Z,1018.76
2017-09-25T09:22:06.720Z,1018.71
2017-09-25T09:23:06.682Z,1018.73
2017-09-25T09:24:06.650Z,1018.75
2017-09-25T09:25:06.630Z,1018.76
2017-09-25T09:26:06.582Z,1018.75
2017-09-25T09:27:06.558Z,1018.72
2017-09-25T09:28:06.532Z,1018.78
2017-09-25T09:29:06.487Z,1018.75
2017-09-25T09:30:06.448Z,1018.79
2017-09-25T09:31:06.420Z,1018.77
2017-09-25T09:32:06.381Z,1018.81
2017-09-25T09:33:06.344Z,1018.76
2017-09-25T09:34:06.327Z,1018.81
2017-09-25T09:35:06.287Z,1018.79
2017-09-25T09:36:06.243Z,1018.79
2017-09-25T09:37:06.209Z,1018.78
2017-09-25T09:38:06.175Z,1018.76
2017-09-25T09:39:06.156Z,1018.76
2017-09-25T09:40:06.116Z,1018.75
2017-09-25T09:41:06.162Z,1018.79
2017-09-25T09:42:06.044Z,1018.77
2017-09-25T09:43:06.038Z,1018.76
2017-09-25T09:44:05.984Z,1018.78
2017-09-25T09:45:05.960Z,1018.79
2017-09-25T09:46:05.921Z,1018.76
2017-09-25T09:47:05.878Z,1018.78
2017-09-25T09:48:05.845Z,1018.83
2017-09-25T09:49:05.833Z,1018.78
2017-09-25T09:50:05.781Z,1018.79
2017-09-25T09:51:05.746Z,1018.79
2017-09-25T09:52:05.731Z,1018.80
2017-09-25T09:53:05.676Z,1018.83
2017-09-25T09:54:05.644Z,1018.82
2017-09-25T09:55:05.612Z,1018.83
2017-09-25T09:56:05.574Z,1018.77
2017-09-25T09:57:05.557Z,1018.85
2017-09-25T09:58:05.544Z,1018.82
2017-09-25T09:59:05.479Z,1018.78
2017-09-25T10:00:05.451Z,1018.83
2017-09-25T10:01:05.401Z,1018.80
2017-09-25T10:02:05.379Z,1018.77
2017-09-25T10:03:05.340Z,1018.75
2017-09-25T10:05:36.891Z,1018.76
2017-09-25T10:06:36.805Z,1018.77
2017-09-25T10:08:29.647Z,1018.78
2017-09-25T10:09:29.595Z,1018.79
2017-09-25T10:11:22.471Z,1018.73
2017-09-25T10:12:22.439Z,1018.75
2017-09-25T10:14:15.270Z,1018.73
2017-09-25T10:15:15.224Z,1018.72
2017-09-25T10:17:08.051Z,1018.72
2017-09-25T10:18:08.020Z,1018.74
2017-09-25T10:20:00.853Z,1018.74
2017-09-25T10:21:00.803Z,1018.70
2017-09-25T10:22:54.264Z,1018.70
2017-09-25T10:23:53.830Z,1018.71
2017-09-25T10:25:46.674Z,1018.68
2017-09-25T10:26:46.626Z,1018.71
2017-09-25T10:28:39.465Z,1018.68
2017-09-25T10:29:39.421Z,1018.68
2017-09-25T10:31:32.512Z,1018.71
2017-09-25T10:32:32.201Z,1018.75
2017-09-25T10:34:25.062Z,1018.74
2017-09-25T10:35:25.028Z,1018.72
2017-09-25T10:37:17.956Z,1018.72
2017-09-25T10:38:17.813Z,1018.72
2017-09-25T10:40:10.638Z,1018.73
2017-09-25T10:41:10.600Z,1018.71
2017-09-25T10:43:03.714Z,1018.73
2017-09-25T10:44:03.392Z,1018.73
2017-09-25T10:45:56.251Z,1018.78
2017-09-25T10:46:56.221Z,1018.77
2017-09-25T10:48:49.345Z,1018.77
2017-09-25T10:49:48.996Z,1018.72
2017-09-25T10:51:41.850Z,1018.75
2017-09-25T10:52:41.787Z,1018.71
2017-09-25T10:54:34.880Z,1018.71
2017-09-25T10:55:34.567Z,1018.71
2017-09-25T10:57:27.497Z,1018.69
2017-09-25T10:58:27.451Z,1018.72
2017-09-25T11:00:20.299Z,1018.73
2017-09-25T11:01:20.275Z,1018.71
2017-09-25T11:03:13.159Z,1018.73
2017-09-25T11:04:13.055Z,1018.74
2017-09-25T11:06:05.880Z,1018.76
2017-09-25T11:07:05.828Z,1018.73
2017-09-25T11:08:58.657Z,1018.73
2017-09-25T11:09:58.625Z,1018.77
2017-09-25T11:11:51.549Z,1018.72
2017-09-25T11:12:51.420Z,1018.75
2017-09-25T11:14:44.244Z,1018.75
2017-09-25T11:15:44.206Z,1018.75
2017-09-25T11:17:37.177Z,1018.73
2017-09-25T11:18:37.121Z,1018.79
2017-09-25T11:20:30.011Z,1018.79
2017-09-25T11:21:29.972Z,1018.81
2017-09-25T11:23:22.910Z,1018.76
2017-09-25T11:24:22.762Z,1018.81
2017-09-25T11:26:15.658Z,1018.80
2017-09-25T11:27:15.538Z,1018.84
2017-09-25T11:29:08.361Z,1018.81
2017-09-25T11:30:08.358Z,1018.85
2017-09-25T11:32:01.167Z,1018.81
2017-09-25T11:33:01.111Z,1018.86
2017-09-25T11:34:54.018Z,1018.81
2017-09-25T11:35:53.931Z,1018.78
2017-09-25T11:37:46.752Z,1018.78
2017-09-25T11:38:46.714Z,1018.72
2017-09-25T11:40:39.588Z,1018.75
2017-09-25T11:41:39.533Z,1018.75
2017-09-25T11:43:32.417Z,1018.74
2017-09-25T11:44:32.377Z,1018.75
2017-09-25T11:46:25.261Z,1018.70
2017-09-25T11:47:25.161Z,1018.72
2017-09-25T11:49:18.012Z,1018.72
2017-09-25T11:50:17.985Z,1018.70
2017-09-25T11:52:11.807Z,1018.70
2017-09-25T11:53:11.759Z,1018.73
2017-09-25T11:55:04.602Z,1018.76
2017-09-25T11:56:04.555Z,1018.68
2017-09-25T11:57:57.874Z,1018.78
2017-09-25T11:58:57.851Z,1018.76
2017-09-25T11:59:57.809Z,1018.80
2017-09-25T12:00:57.781Z,1018.78
2017-09-25T12:01:57.731Z,1018.80
2017-09-25T12:02:57.695Z,1018.76
2017-09-25T12:03:57.679Z,1018.82
2017-09-25T12:04:57.628Z,1018.79
2017-09-25T12:05:57.607Z,1018.71
2017-09-25T12:06:57.598Z,1018.70
2017-09-25T12:07:57.545Z,1018.73
2017-09-25T12:08:57.505Z,1018.65
2017-09-25T12:09:57.464Z,1018.65
2017-09-25T12:10:57.471Z,1018.64
2017-09-25T12:11:57.430Z,1018.61
2017-09-25T12:12:57.385Z,1018.61
2017-09-25T12:13:57.339Z,1018.64
2017-09-25T12:14:57.301Z,1018.57
2017-09-25T12:15:57.273Z,1018.61
2017-09-25T12:16:57.239Z,1018.56
2017-09-25T12:17:57.211Z,1018.56
2017-09-25T12:18:57.182Z,1018.54
2017-09-25T12:19:57.156Z,1018.55
2017-09-25T12:20:57.134Z,1018.56
2017-09-25T12:21:57.087Z,1018.53
2017-09-25T12:22:57.064Z,1018.53
2017-09-25T12:23:57.023Z,1018.50
2017-09-25T12:24:56.978Z,1018.53
2017-09-25T12:25:56.935Z,1018.52
2017-09-25T12:26:56.924Z,1018.55
2017-09-25T12:27:56.866Z,1018.63
2017-09-25T12:28:56.891Z,1018.59
2017-09-25T12:29:56.827Z,1018.59
2017-09-25T12:30:56.789Z,1018.62
2017-09-25T12:31:56.744Z,1018.59
2017-09-25T12:32:56.699Z,1018.60
2017-09-25T12:33:56.670Z,1018.62
2017-09-25T12:34:56.629Z,1018.56
2017-09-25T12:35:56.600Z,1018.63
2017-09-25T12:36:56.565Z,1018.63
2017-09-25T12:37:56.530Z,1018.65
2017-09-25T12:38:56.499Z,1018.63
2017-09-25T12:39:56.457Z,1018.68
2017-09-25T12:40:56.426Z,1018.63
2017-09-25T12:41:56.393Z,1018.68
2017-09-25T12:42:56.356Z,1018.64
2017-09-25T12:43:56.322Z,1018.70
2017-09-25T12:44:56.287Z,1018.69
2017-09-25T12:45:56.263Z,1018.69
2017-09-25T12:46:56.222Z,1018.69
2017-09-25T12:47:56.187Z,1018.67
2017-09-25T12:48:56.155Z,1018.68
2017-09-25T12:49:56.130Z,1018.68
2017-09-25T12:50:56.084Z,1018.69
2017-09-25T12:51:56.051Z,1018.70
2017-09-25T12:52:56.017Z,1018.71
2017-09-25T12:53:56.008Z,1018.73
2017-09-25T12:54:55.948Z,1018.73
2017-09-25T12:55:55.923Z,1018.73
2017-09-25T12:56:55.881Z,1018.73
2017-09-25T12:57:55.855Z,1018.71
2017-09-25T12:58:55.825Z,1018.74
2017-09-25T12:59:55.778Z,1018.72
2017-09-25T13:00:55.743Z,1018.72
2017-09-25T13:01:55.711Z,1018.76
2017-09-25T13:02:55.688Z,1018.77
2017-09-25T13:03:55.644Z,1018.74
2017-09-25T13:04:55.615Z,1018.73
2017-09-25T13:05:55.580Z,1018.74
2017-09-25T13:06:55.541Z,1018.69
2017-09-25T13:07:55.508Z,1018.72
2017-09-25T13:08:55.473Z,1018.70
2017-09-25T13:09:55.443Z,1018.71
2017-09-25T13:10:55.406Z,1018.74
2017-09-25T13:11:55.380Z,1018.78
2017-09-25T13:12:55.338Z,1018.70
2017-09-25T13:13:55.307Z,1018.69
2017-09-25T13:14:55.281Z,1018.71
2017-09-25T13:15:55.239Z,1018.69
2017-09-25T13:16:55.213Z,1018.72
2017-09-25T13:17:55.172Z,1018.74
2017-09-25T13:18:55.176Z,1018.73
2017-09-25T13:19:55.104Z,1018.70
2017-09-25T13:20:55.075Z,1018.75
2017-09-25T13:21:55.079Z,1018.72
2017-09-25T13:22:55.002Z,1018.77
2017-09-25T13:23:54.971Z,1018.70
2017-09-25T13:24:54.938Z,1018.73
2017-09-25T13:25:54.906Z,1018.70
2017-09-25T13:26:54.869Z,1018.73
2017-09-25T13:27:54.836Z,1018.70
2017-09-25T13:28:54.803Z,1018.66
2017-09-25T13:29:54.769Z,1018.69
2017-09-25T13:30:54.738Z,1018.70
2017-09-25T13:31:54.703Z,1018.73
2017-09-25T13:32:54.667Z,1018.72
2017-09-25T13:33:54.653Z,1018.74
2017-09-25T13:34:54.607Z,1018.73
2017-09-25T13:35:54.572Z,1018.71
2017-09-25T13:36:54.540Z,1018.72
2017-09-25T13:37:54.509Z,1018.71
2017-09-25T13:38:54.476Z,1018.72
2017-09-25T13:39:54.437Z,1018.70
2017-09-25T13:40:54.421Z,1018.75
2017-09-25T13:41:54.381Z,1018.75
2017-09-25T13:42:54.339Z,1018.78
2017-09-25T13:43:54.302Z,1018.79
2017-09-25T13:44:54.268Z,1018.80
2017-09-25T13:45:54.242Z,1018.76
2017-09-25T13:46:54.200Z,1018.80
2017-09-25T13:47:54.165Z,1018.80
2017-09-25T13:48:54.133Z,1018.75
2017-09-25T13:49:54.100Z,1018.78
2017-09-25T13:50:54.066Z,1018.74
2017-09-25T13:51:54.034Z,1018.75
2017-09-25T13:52:53.997Z,1018.77
2017-09-25T13:53:53.965Z,1018.75
2017-09-25T13:54:53.942Z,1018.70